Time;durP1;ratioP1;P1;durP2;ratioP2;P2;SDS_P1;SDS_P2;PMS_P1;PMS_P2;Temp;Humidity;BMP_temperature;BMP_pressure;BME280_temperature;BME280_humidity;BME280_pressure;Samples;Min_cycle;Max_cycle;Signal;HPM_P1;HPM_P2
2022/08/27 00:01:36;;;;;;;11.18;7.28;;;22.40;99.90;;;;;;10497704;28;20252;-79
2022/08/27 00:06:57;;;;;;;7.18;5.68;;;22.30;99.90;;;;;;10559401;28;20190;-78
2022/08/27 00:12:19;;;;;;;11.57;6.20;;;22.30;99.90;;;;;;10538364;28;20242;-76
2022/08/27 00:17:44;;;;;;;11.10;6.50;;;22.30;99.90;;;;;;10523381;28;20489;-80
2022/08/27 00:23:05;;;;;;;10.77;6.10;;;22.20;99.90;;;;;;10522832;28;20222;-81
2022/08/27 00:28:28;;;;;;;9.32;6.43;;;22.10;99.90;;;;;;10522634;28;20268;-82
2022/08/27 00:33:49;;;;;;;8.50;5.50;;;22.30;99.90;;;;;;10481738;28;20452;-77
2022/08/27 00:39:11;;;;;;;6.57;4.88;;;22.20;99.90;;;;;;10480908;28;20215;-78
2022/08/27 00:44:35;;;;;;;7.40;4.90;;;22.00;99.90;;;;;;10480618;28;20218;-76
2022/08/27 00:50:10;;;;;;;7.88;5.60;;;22.00;99.90;;;;;;10465461;28;20223;-77
2022/08/27 00:55:36;;;;;;;6.97;5.10;;;22.00;99.90;;;;;;10480590;28;20232;-77
2022/08/27 01:00:59;;;;;;;8.77;5.18;;;21.90;99.90;;;;;;10489994;28;20203;-76
2022/08/27 01:06:22;;;;;;;5.60;4.82;;;;;;;;;;10551492;28;20208;-78
2022/08/27 01:11:46;;;;;;;6.63;4.75;;;21.80;99.90;;;;;;10541732;28;20519;-77
2022/08/27 01:17:09;;;;;;;8.88;4.82;;;21.70;99.90;;;;;;10521027;28;20209;-76
2022/08/27 01:22:58;;;;;;;7.05;4.75;;;21.50;99.90;;;;;;10520769;28;20257;-76
2022/08/27 01:28:20;;;;;;;7.47;4.97;;;21.40;99.90;;;;;;10519263;28;20194;-81
2022/08/27 01:34:00;;;;;;;7.82;4.95;;;21.40;99.90;;;;;;10481396;28;20227;-81
2022/08/27 01:39:22;;;;;;;8.13;4.93;;;21.20;99.90;;;;;;10479055;28;20192;-81
2022/08/27 01:44:50;;;;;;;8.70;4.55;;;21.20;99.90;;;;;;10478931;28;20188;-81
2022/08/27 01:50:16;;;;;;;6.35;5.10;;;21.30;99.90;;;;;;10478619;28;20196;-82
2022/08/27 01:55:39;;;;;;;5.60;4.93;;;21.40;99.90;;;;;;10477452;28;20432;-82
2022/08/27 02:01:04;;;;;;;5.43;4.70;;;21.40;99.90;;;;;;10488752;28;20234;-81
2022/08/27 02:06:25;;;;;;;9.65;5.15;;;21.40;99.90;;;;;;10551676;28;20432;-80
2022/08/27 02:11:47;;;;;;;7.15;4.50;;;21.40;99.90;;;;;;10539822;28;20206;-81
2022/08/27 02:17:11;;;;;;;6.30;4.88;;;21.30;99.90;;;;;;10519420;28;20419;-80
2022/08/27 02:22:32;;;;;;;9.18;4.85;;;21.30;99.90;;;;;;10513189;28;20218;-79
2022/08/27 02:27:58;;;;;;;8.90;4.68;;;21.20;99.90;;;;;;10526435;28;20490;-81
2022/08/27 02:33:20;;;;;;;5.53;4.82;;;21.20;99.90;;;;;;10490324;28;20558;-80
2022/08/27 02:38:41;;;;;;;7.22;5.78;;;21.10;99.90;;;;;;10484738;28;20196;-81
2022/08/27 02:44:04;;;;;;;11.15;6.05;;;;;;;;;;10484974;28;20566;-80
2022/08/27 02:49:25;;;;;;;7.43;5.53;;;21.00;99.90;;;;;;10484166;28;20199;-80
2022/08/27 02:54:48;;;;;;;9.13;5.65;;;20.90;99.90;;;;;;10483592;28;20439;-80
2022/08/27 03:00:12;;;;;;;8.02;6.00;;;20.80;99.90;;;;;;10488110;28;20199;-80
2022/08/27 03:05:34;;;;;;;8.85;6.97;;;20.60;99.90;;;;;;10550954;28;20391;-79
2022/08/27 03:10:56;;;;;;;7.35;5.93;;;20.60;99.90;;;;;;10553544;28;20270;-79
2022/08/27 03:16:17;;;;;;;13.68;8.85;;;20.70;99.90;;;;;;10525750;28;20217;-80
2022/08/27 03:22:05;;;;;;;16.73;11.30;;;20.60;99.90;;;;;;10525130;28;20218;-80
2022/08/27 03:27:26;;;;;;;14.48;8.73;;;20.60;99.90;;;;;;10525433;28;20274;-79
2022/08/27 03:32:49;;;;;;;7.10;6.00;;;20.50;99.90;;;;;;10492627;28;20285;-79
2022/08/27 03:38:10;;;;;;;10.27;6.50;;;20.50;99.90;;;;;;10483351;28;20215;-80
2022/08/27 03:43:32;;;;;;;6.97;5.78;;;20.50;99.90;;;;;;10483433;28;20230;-79
2022/08/27 03:48:53;;;;;;;9.68;4.93;;;20.40;99.90;;;;;;10482163;28;20230;-76
2022/08/27 03:54:15;;;;;;;7.65;5.47;;;;;;;;;;10481527;28;20232;-77
2022/08/27 03:59:37;;;;;;;7.20;5.72;;;20.30;99.90;;;;;;10482828;28;20211;-76
2022/08/27 04:04:58;;;;;;;7.85;5.43;;;20.40;99.90;;;;;;10520420;28;20391;-78
2022/08/27 04:10:20;;;;;;;9.82;5.75;;;20.30;99.90;;;;;;10555538;28;20253;-75
2022/08/27 04:15:47;;;;;;;7.38;6.38;;;20.20;99.90;;;;;;10522623;28;20222;-76
2022/08/27 04:21:11;;;;;;;8.43;7.22;;;20.20;99.90;;;;;;10521692;28;20257;-76
2022/08/27 04:26:33;;;;;;;9.63;6.70;;;20.20;99.90;;;;;;10508089;28;20199;-77
2022/08/27 04:31:55;;;;;;;7.35;6.30;;;20.30;99.90;;;;;;10498841;28;20279;-76
2022/08/27 04:37:16;;;;;;;12.70;6.50;;;20.40;99.90;;;;;;10481002;28;20203;-76
2022/08/27 04:42:37;;;;;;;7.20;5.68;;;20.40;99.90;;;;;;10479054;28;20219;-76
2022/08/27 04:47:59;;;;;;;6.55;5.40;;;20.50;99.90;;;;;;10479789;28;20192;-76
2022/08/27 04:53:21;;;;;;;11.02;5.78;;;20.50;99.90;;;;;;10480414;28;20248;-76
2022/08/27 04:58:43;;;;;;;8.27;6.25;;;20.60;99.90;;;;;;10479057;28;20505;-76
2022/08/27 05:04:05;;;;;;;7.80;6.03;;;20.60;99.90;;;;;;10526808;28;20198;-76
2022/08/27 05:09:26;;;;;;;7.40;6.00;;;20.70;99.90;;;;;;10560572;28;20194;-76
2022/08/27 05:14:48;;;;;;;13.98;6.47;;;20.80;99.90;;;;;;10520166;28;20284;-76
2022/08/27 05:20:10;;;;;;;8.70;6.70;;;20.90;99.90;;;;;;10505220;28;20391;-77
2022/08/27 05:25:37;;;;;;;11.90;6.95;;;21.10;99.90;;;;;;10519838;28;20197;-76
2022/08/27 05:31:08;;;;;;;9.23;6.38;;;21.10;99.90;;;;;;10504274;28;20449;-77
2022/08/27 05:36:32;;;;;;;12.32;6.80;;;21.30;99.90;;;;;;10478655;28;20223;-77
2022/08/27 05:41:56;;;;;;;8.40;6.60;;;21.40;99.90;;;;;;10477876;28;20218;-77
2022/08/27 05:47:17;;;;;;;11.77;6.53;;;21.50;99.90;;;;;;10478486;28;20198;-76
2022/08/27 06:06:05;;;;;;;12.57;8.20;;;21.90;99.90;;;;;;10554901;28;20470;-76
2022/08/27 06:11:27;;;;;;;15.20;9.18;;;22.10;99.90;;;;;;10581399;28;20225;-76
2022/08/27 06:23:24;;;;;;;9.60;7.43;;;;;;;;;;10557180;28;20234;-76
2022/08/27 06:28:45;;;;;;;14.10;7.40;;;24.10;98.80;;;;;;10557646;28;20273;-77
2022/08/27 06:34:08;;;;;;;9.25;6.38;;;24.80;96.70;;;;;;10515610;28;20230;-77
2022/08/27 06:39:30;;;;;;;8.57;5.63;;;26.50;89.90;;;;;;10500010;28;20239;-77
2022/08/27 06:44:53;;;;;;;9.90;6.53;;;26.50;89.00;;;;;;10462531;28;20282;-77
2022/08/27 06:50:14;;;;;;;10.05;6.53;;;27.40;82.10;;;;;;10477474;28;20269;-77
2022/08/27 06:55:43;;;;;;;9.55;6.00;;;28.20;71.40;;;;;;10477122;28;20219;-77
2022/08/27 07:01:17;;;;;;;9.05;6.28;;;28.70;61.10;;;;;;10487741;28;20195;-77
2022/08/27 07:06:39;;;;;;;7.97;5.72;;;29.20;1.00;;;;;;10557486;28;20229;-78
2022/08/27 07:12:01;;;;;;;9.98;5.40;;;29.70;1.00;;;;;;10544448;28;20274;-77
2022/08/27 07:17:22;;;;;;;6.75;5.55;;;30.40;1.00;;;;;;10525565;28;20191;-77
2022/08/27 07:22:45;;;;;;;8.07;5.97;;;30.90;1.00;;;;;;10525525;28;20239;-78
2022/08/27 07:28:06;;;;;;;9.75;5.68;;;31.20;1.00;;;;;;10525083;28;20187;-77
2022/08/27 07:33:28;;;;;;;6.45;5.38;;;31.40;1.00;;;;;;10488237;28;20220;-78
2022/08/27 07:38:51;;;;;;;6.78;5.60;;;32.10;99.90;;;;;;10483660;28;20199;-78
2022/08/27 07:44:25;;;;;;;9.18;5.30;;;32.20;99.90;;;;;;10482384;28;20191;-78
2022/08/27 07:49:47;;;;;;;8.00;5.53;;;32.50;99.90;;;;;;10482976;28;20219;-77
2022/08/27 07:55:10;;;;;;;14.02;6.07;;;32.60;99.90;;;;;;10481566;28;20227;-78
2022/08/27 08:00:32;;;;;;;9.60;5.78;;;33.10;99.90;;;;;;10488324;28;20197;-76
2022/08/27 08:05:56;;;;;;;11.45;5.63;;;33.50;99.90;;;;;;10551215;28;20556;-81
2022/08/27 08:11:19;;;;;;;6.97;5.88;;;33.90;99.90;;;;;;10546491;28;20482;-77
2022/08/27 08:16:40;;;;;;;10.98;6.05;;;34.10;1.00;;;;;;10522196;28;20218;-78
2022/08/27 08:22:02;;;;;;;7.32;5.65;;;34.40;99.90;;;;;;10523111;28;20302;-78
2022/08/27 08:27:26;;;;;;;10.20;6.07;;;34.60;99.90;;;;;;10521723;28;20187;-78
2022/08/27 08:32:48;;;;;;;8.73;5.60;;;34.60;99.90;;;;;;10476003;28;20294;-77
2022/08/27 08:38:09;;;;;;;10.60;5.70;;;35.10;99.90;;;;;;10480148;28;20383;-82
2022/08/27 08:43:33;;;;;;;8.07;5.50;;;35.40;99.90;;;;;;10480644;28;20192;-82
2022/08/27 08:49:01;;;;;;;9.13;5.18;;;35.40;99.90;;;;;;10480669;28;20198;-82
2022/08/27 08:54:29;;;;;;;12.85;5.93;;;35.90;99.90;;;;;;10480521;28;20223;-82
2022/08/27 09:00:03;;;;;;;7.32;5.20;;;36.20;97.20;;;;;;10479946;28;20246;-82
2022/08/27 09:05:25;;;;;;;6.05;5.13;;;37.00;99.90;;;;;;10544817;28;20194;-82
2022/08/27 09:11:08;;;;;;;10.27;5.28;;;36.90;99.90;;;;;;10549101;28;20358;-82
2022/08/27 09:16:31;;;;;;;7.13;4.65;;;;;;;;;;10520941;28;20223;-82
2022/08/27 09:22:10;;;;;;;8.10;5.28;;;37.20;1.00;;;;;;10520725;28;20229;-80
2022/08/27 09:27:35;;;;;;;11.85;5.45;;;37.50;1.00;;;;;;10519703;28;20191;-79
2022/08/27 09:33:03;;;;;;;7.18;5.65;;;;;;;;;;10487765;28;20208;-79
2022/08/27 09:38:30;;;;;;;8.90;5.97;;;37.70;99.90;;;;;;10478725;28;20387;-81
2022/08/27 09:43:56;;;;;;;12.07;5.22;;;;;;;;;;10477590;28;20418;-82
2022/08/27 09:49:18;;;;;;;8.15;4.97;;;37.80;99.90;;;;;;10478669;28;20192;-76
2022/08/27 09:54:45;;;;;;;11.48;5.25;;;38.30;99.90;;;;;;10477223;28;20402;-78
2022/08/27 10:00:14;;;;;;;10.77;4.68;;;38.30;68.20;;;;;;10508669;28;20217;-78
2022/08/27 10:05:41;;;;;;;9.18;4.38;;;38.30;99.90;;;;;;10543602;28;20375;-78
2022/08/27 10:11:09;;;;;;;9.52;4.30;;;38.40;99.60;;;;;;10545714;28;20236;-77
2022/08/27 10:16:51;;;;;;;6.07;4.43;;;38.50;59.80;;;;;;10518405;28;20231;-81
2022/08/27 10:29:20;;;;;;;7.20;4.45;;;;;;;;;;10516329;28;20175;-81
2022/08/27 10:35:04;;;;;;;5.80;4.38;;;39.00;29.80;;;;;;10476502;28;20237;-78
2022/08/27 10:40:33;;;;;;;8.55;4.47;;;38.50;21.50;;;;;;10481742;28;20490;-79
2022/08/27 10:45:57;;;;;;;7.30;4.20;;;38.70;67.30;;;;;;10484449;28;20227;-79
2022/08/27 10:51:36;;;;;;;7.57;4.47;;;39.00;30.40;;;;;;10483838;28;20382;-79
2022/08/27 10:57:35;;;;;;;7.85;4.78;;;38.40;1.00;;;;;;10483937;28;20530;-80
2022/08/27 11:03:21;;;;;;;11.75;4.95;;;38.60;78.60;;;;;;10517829;28;20198;-79
2022/08/27 11:08:52;;;;;;;5.82;4.53;;;38.60;95.90;;;;;;10556643;28;20559;-81
2022/08/27 11:14:53;;;;;;;8.65;4.53;;;38.40;1.00;;;;;;10491510;28;20255;-78
2022/08/27 11:20:26;;;;;;;7.93;4.72;;;38.50;1.00;;;;;;10478099;28;20242;-79
2022/08/27 11:25:55;;;;;;;5.72;4.40;;;38.50;1.00;;;;;;10482672;28;20188;-78
2022/08/27 11:31:35;;;;;;;6.82;4.65;;;38.30;1.00;;;;;;10462722;28;20344;-80
2022/08/27 11:37:15;;;;;;;8.10;5.18;;;38.60;52.30;;;;;;10438384;28;20255;-80
2022/08/27 11:42:42;;;;;;;5.00;4.43;;;38.40;6.60;;;;;;10437185;28;20235;-78
2022/08/27 11:48:24;;;;;;;5.03;4.55;;;38.40;28.40;;;;;;10439390;28;20368;-79
2022/08/27 11:53:58;;;;;;;5.65;3.88;;;38.50;1.00;;;;;;10441769;28;20216;-77
2022/08/27 11:59:31;;;;;;;7.03;4.68;;;37.90;1.00;;;;;;10441436;28;20521;-77
2022/08/27 12:05:06;;;;;;;5.82;4.68;;;37.90;1.00;;;;;;10463723;28;20240;-77
2022/08/27 12:11:05;;;;;;;4.20;3.75;;;37.60;1.00;;;;;;10502500;28;20208;-77
2022/08/27 12:16:54;;;;;;;5.68;4.30;;;37.80;1.00;;;;;;10439411;28;20235;-77
2022/08/27 12:28:27;;;;;;;9.57;4.47;;;37.50;1.00;;;;;;10440466;28;20258;-76
2022/08/27 12:33:52;;;;;;;8.70;4.43;;;37.60;1.00;;;;;;10439905;28;20613;-76
2022/08/27 12:39:18;;;;;;;7.43;4.50;;;36.50;1.00;;;;;;10439076;28;20377;-76
2022/08/27 12:44:39;;;;;;;7.75;4.53;;;36.30;1.00;;;;;;10438909;28;20200;-76
2022/08/27 12:50:01;;;;;;;8.68;4.32;;;36.30;1.00;;;;;;10438425;28;20219;-76
2022/08/27 12:55:42;;;;;;;6.97;4.75;;;36.10;1.00;;;;;;10439280;28;20287;-76
2022/08/27 13:01:20;;;;;;;8.20;5.07;;;35.80;5.30;;;;;;10449067;28;20279;-75
2022/08/27 13:06:44;;;;;;;5.00;4.53;;;35.50;1.00;;;;;;10513930;28;20214;-76
2022/08/27 13:12:16;;;;;;;8.85;5.07;;;35.30;7.40;;;;;;10474123;28;20236;-76
2022/08/27 13:17:40;;;;;;;6.63;4.45;;;34.80;1.00;;;;;;10437145;28;20220;-76
2022/08/27 13:23:03;;;;;;;6.00;4.80;;;34.60;14.00;;;;;;10437005;28;20550;-76
2022/08/27 13:28:26;;;;;;;6.97;5.05;;;34.70;1.00;;;;;;10422970;28;20204;-76
2022/08/27 13:33:49;;;;;;;9.45;4.97;;;34.70;1.00;;;;;;10436648;28;20232;-76
2022/08/27 13:39:11;;;;;;;6.55;5.25;;;34.30;1.00;;;;;;10422752;28;20229;-77
2022/08/27 13:44:36;;;;;;;13.45;5.30;;;34.20;1.00;;;;;;10437630;28;20192;-77
2022/08/27 13:50:24;;;;;;;7.03;5.03;;;34.10;1.00;;;;;;10437448;28;20200;-76
2022/08/27 13:55:48;;;;;;;6.85;5.00;;;34.20;1.00;;;;;;10436116;28;20216;-76
2022/08/27 14:01:14;;;;;;;9.82;5.25;;;;;;;;;;10448030;28;20204;-76
2022/08/27 14:06:44;;;;;;;6.82;5.43;;;33.50;1.00;;;;;;10511222;28;20252;-76
2022/08/27 14:12:09;;;;;;;6.18;4.60;;;33.20;1.00;;;;;;10472300;28;20200;-75
2022/08/27 14:17:36;;;;;;;7.43;4.80;;;33.00;1.00;;;;;;10444849;28;20227;-75
2022/08/27 14:22:58;;;;;;;6.25;5.10;;;32.70;1.00;;;;;;10443884;28;20255;-74
2022/08/27 14:28:20;;;;;;;8.15;5.72;;;32.40;1.00;;;;;;10443897;28;20198;-74
2022/08/27 14:33:41;;;;;;;10.00;6.00;;;32.10;1.00;;;;;;10444719;28;20514;-79
2022/08/27 14:39:03;;;;;;;7.10;5.80;;;31.90;1.00;;;;;;10443418;28;20196;-75
2022/08/27 14:44:26;;;;;;;9.77;5.53;;;32.00;1.00;;;;;;10444415;28;20399;-74
2022/08/27 14:49:47;;;;;;;8.73;6.38;;;31.90;1.00;;;;;;10444348;28;20227;-75
2022/08/27 14:55:11;;;;;;;7.97;6.15;;;31.70;1.00;;;;;;10443978;28;20553;-76
2022/08/27 15:00:32;;;;;;;6.82;5.53;;;31.50;1.00;;;;;;10449983;28;20210;-77
2022/08/27 15:05:55;;;;;;;9.70;6.10;;;31.50;1.00;;;;;;10511962;28;20195;-79
2022/08/27 15:11:26;;;;;;;8.77;6.00;;;31.50;1.00;;;;;;10477542;28;20208;-76
2022/08/27 15:16:48;;;;;;;7.68;5.38;;;31.40;1.00;;;;;;10442064;28;20239;-74
2022/08/27 15:22:19;;;;;;;10.50;6.13;;;31.40;1.00;;;;;;10442039;28;20224;-75
2022/08/27 15:27:41;;;;;;;11.90;5.82;;;31.30;1.00;;;;;;10442230;28;20193;-76
2022/08/27 15:33:05;;;;;;;9.82;5.80;;;31.30;1.00;;;;;;10442493;28;20196;-76
2022/08/27 15:38:26;;;;;;;7.22;5.80;;;31.20;1.00;;;;;;10442202;28;20392;-76
2022/08/27 15:43:48;;;;;;;9.95;5.63;;;31.00;1.00;;;;;;10440817;28;20204;-76
2022/08/27 15:49:12;;;;;;;8.82;5.40;;;30.80;1.00;;;;;;10441964;28;20192;-76
2022/08/27 15:54:34;;;;;;;13.80;5.82;;;30.80;1.00;;;;;;10440309;28;20270;-76
2022/08/27 15:59:56;;;;;;;6.65;5.07;;;30.70;1.00;;;;;;10442400;28;20207;-76
2022/08/27 16:05:19;;;;;;;7.35;4.88;;;30.60;1.00;;;;;;10504616;28;20195;-78
2022/08/27 16:10:40;;;;;;;9.95;5.60;;;30.50;1.00;;;;;;10500048;28;20280;-76
2022/08/27 16:16:02;;;;;;;8.00;5.40;;;30.40;1.00;;;;;;10441040;28;20456;-76
2022/08/27 16:21:24;;;;;;;6.63;5.53;;;30.30;1.00;;;;;;10440571;28;20248;-77
2022/08/27 16:26:47;;;;;;;8.27;5.38;;;30.30;1.00;;;;;;10440520;28;20508;-77
2022/08/27 16:32:14;;;;;;;7.53;6.30;;;30.20;1.00;;;;;;10440334;28;20192;-77
2022/08/27 16:37:36;;;;;;;13.73;8.27;;;30.20;1.00;;;;;;10439093;28;20274;-77
2022/08/27 16:42:58;;;;;;;10.02;8.68;;;30.10;1.00;;;;;;10438635;28;20219;-78
2022/08/27 16:54:03;;;;;;;11.60;6.65;;;29.90;1.00;;;;;;10439129;28;20250;-77
2022/08/27 16:59:25;;;;;;;7.13;6.43;;;29.70;1.00;;;;;;10439390;28;20554;-79
2022/08/27 17:04:46;;;;;;;13.95;6.50;;;29.60;1.00;;;;;;10497722;28;20198;-77
2022/08/27 17:10:12;;;;;;;8.38;6.78;;;29.40;1.00;;;;;;10504942;28;20259;-78
2022/08/27 17:15:34;;;;;;;7.85;6.47;;;29.30;1.00;;;;;;10438616;28;20514;-78
2022/08/27 17:20:57;;;;;;;8.00;6.82;;;29.10;1.00;;;;;;10438315;28;20225;-77
2022/08/27 17:26:21;;;;;;;9.20;6.55;;;28.90;1.00;;;;;;10437912;28;20263;-78
2022/08/27 17:31:43;;;;;;;8.98;6.80;;;28.80;1.00;;;;;;10438116;28;20201;-78
2022/08/27 17:37:05;;;;;;;11.82;7.72;;;28.50;1.00;;;;;;10422784;28;20267;-77
2022/08/27 17:42:28;;;;;;;8.93;7.65;;;28.30;1.00;;;;;;10437631;28;20188;-78
2022/08/27 17:47:49;;;;;;;10.88;7.70;;;28.00;1.00;;;;;;10437394;28;20223;-78
2022/08/27 17:53:11;;;;;;;8.13;6.95;;;27.90;1.00;;;;;;10437211;28;20389;-77
2022/08/27 17:58:32;;;;;;;11.40;7.65;;;27.80;1.00;;;;;;10437296;28;20224;-78
2022/08/27 18:03:55;;;;;;;12.05;8.02;;;27.60;1.00;;;;;;10480665;28;20194;-78
2022/08/27 18:09:17;;;;;;;11.82;8.05;;;27.40;16.00;;;;;;10519167;28;20581;-76
2022/08/27 18:14:39;;;;;;;9.85;7.90;;;27.30;26.30;;;;;;10436935;28;20212;-75
2022/08/27 18:20:00;;;;;;;8.90;7.93;;;27.10;41.50;;;;;;10435674;28;20275;-77
2022/08/27 18:25:25;;;;;;;14.07;9.35;;;27.00;99.90;;;;;;10422272;28;20188;-78
2022/08/27 18:30:48;;;;;;;11.45;8.32;;;26.90;99.90;;;;;;10449552;28;20200;-76
2022/08/27 18:36:09;;;;;;;10.38;8.02;;;26.90;99.90;;;;;;10462157;28;20223;-78
2022/08/27 18:41:31;;;;;;;12.48;8.00;;;26.70;99.90;;;;;;10477490;28;20200;-77
2022/08/27 18:46:53;;;;;;;10.23;8.32;;;26.60;99.90;;;;;;10477405;28;20196;-78
2022/08/27 18:52:16;;;;;;;11.43;7.53;;;26.50;99.90;;;;;;10475905;28;20400;-77
2022/08/27 18:57:38;;;;;;;10.43;8.90;;;26.30;99.90;;;;;;10477254;28;20403;-77
2022/08/27 19:03:00;;;;;;;11.20;8.35;;;26.20;1.00;;;;;;10485441;28;20201;-77
2022/08/27 19:08:22;;;;;;;11.95;8.50;;;26.20;1.00;;;;;;10526001;28;20325;-77
2022/08/27 19:13:44;;;;;;;11.32;8.13;;;26.10;1.00;;;;;;10452262;28;20499;-78
2022/08/27 19:19:05;;;;;;;9.80;7.75;;;26.00;1.00;;;;;;10441845;28;20212;-78
2022/08/27 19:24:27;;;;;;;12.70;8.77;;;26.00;1.00;;;;;;10441571;28;20306;-78
2022/08/27 19:29:49;;;;;;;14.88;8.73;;;25.90;1.00;;;;;;10441762;28;20264;-78
2022/08/27 19:35:11;;;;;;;13.60;8.70;;;;;;;;;;10442266;28;20251;-78
2022/08/27 19:40:32;;;;;;;10.13;8.05;;;25.70;1.00;;;;;;10441353;28;20208;-76
2022/08/27 19:45:55;;;;;;;11.43;8.77;;;25.60;1.00;;;;;;10442346;28;20226;-79
2022/08/27 19:51:17;;;;;;;11.52;9.07;;;25.50;99.90;;;;;;10441696;28;20189;-78
2022/08/27 19:56:38;;;;;;;11.32;8.27;;;25.40;99.90;;;;;;10441654;28;20622;-77
2022/08/27 20:02:01;;;;;;;10.95;7.90;;;25.30;99.90;;;;;;10459623;28;20249;-77
2022/08/27 20:07:22;;;;;;;11.20;8.48;;;25.30;1.00;;;;;;10522100;28;20377;-77
2022/08/27 20:12:43;;;;;;;11.02;8.80;;;25.20;1.00;;;;;;10465218;28;20246;-74
2022/08/27 20:18:05;;;;;;;13.00;9.05;;;25.20;1.00;;;;;;10440889;28;20224;-75
2022/08/27 20:23:27;;;;;;;10.27;8.27;;;25.00;1.00;;;;;;10439380;28;20232;-76
2022/08/27 20:28:49;;;;;;;9.90;8.35;;;25.00;1.00;;;;;;10440459;28;20195;-76
2022/08/27 20:34:11;;;;;;;12.68;8.30;;;;;;;;;;10440183;28;20242;-75
2022/08/27 20:39:33;;;;;;;11.30;7.93;;;24.90;1.00;;;;;;10440190;28;20207;-75
2022/08/27 20:44:54;;;;;;;9.55;8.20;;;24.80;1.00;;;;;;10440257;28;20421;-75
2022/08/27 20:50:19;;;;;;;10.63;8.00;;;24.80;45.40;;;;;;10439775;28;20196;-75
2022/08/27 20:55:41;;;;;;;12.45;8.20;;;24.70;5.20;;;;;;10439388;28;20258;-75
2022/08/27 21:01:02;;;;;;;15.13;9.77;;;24.60;99.90;;;;;;10448237;28;20196;-75
2022/08/27 21:06:23;;;;;;;13.23;10.57;;;24.60;1.00;;;;;;10511450;28;20194;-75
2022/08/27 21:11:46;;;;;;;12.82;8.85;;;24.40;99.90;;;;;;10478485;28;20212;-75
2022/08/27 21:17:08;;;;;;;10.07;8.82;;;24.40;1.00;;;;;;10438337;28;20227;-75
2022/08/27 21:22:29;;;;;;;9.88;8.25;;;24.20;99.90;;;;;;10437965;28;20596;-75
2022/08/27 21:27:51;;;;;;;10.70;8.77;;;24.10;1.00;;;;;;10438179;28;20275;-74
2022/08/27 21:33:12;;;;;;;11.70;8.55;;;24.00;40.90;;;;;;10437659;28;20383;-76
2022/08/27 21:38:34;;;;;;;15.18;9.75;;;23.80;99.70;;;;;;10437816;28;20243;-76
2022/08/27 21:43:55;;;;;;;14.27;10.30;;;23.70;99.90;;;;;;10436455;28;20203;-77
2022/08/27 21:49:17;;;;;;;18.80;11.18;;;23.50;99.90;;;;;;10436564;28;20200;-76
2022/08/27 21:54:40;;;;;;;15.15;10.13;;;23.40;99.90;;;;;;10436330;28;20212;-76
2022/08/27 22:00:15;;;;;;;11.85;9.55;;;23.40;99.90;;;;;;10437786;28;20473;-76
2022/08/27 22:05:38;;;;;;;14.15;11.07;;;23.40;1.00;;;;;;10502753;28;20195;-77
2022/08/27 22:11:00;;;;;;;17.65;10.75;;;23.30;99.90;;;;;;10491029;28;20223;-76
2022/08/27 22:16:22;;;;;;;16.15;10.43;;;23.10;99.90;;;;;;10436813;28;20291;-76
2022/08/27 22:21:44;;;;;;;10.32;9.10;;;23.10;1.00;;;;;;10436881;28;20239;-78
2022/08/27 22:27:06;;;;;;;11.95;9.98;;;23.10;1.00;;;;;;10436654;28;20206;-76
2022/08/27 22:32:28;;;;;;;14.07;10.38;;;23.00;99.90;;;;;;10435780;28;20193;-77
2022/08/27 22:37:50;;;;;;;13.98;10.40;;;22.90;1.00;;;;;;10442018;28;20232;-77
2022/08/27 22:43:12;;;;;;;11.88;10.23;;;22.90;99.90;;;;;;10429501;28;20193;-76
2022/08/27 22:48:33;;;;;;;13.27;10.88;;;22.80;1.00;;;;;;10444260;28;20230;-76
2022/08/27 22:53:54;;;;;;;12.40;10.32;;;22.70;1.00;;;;;;10444201;28;20193;-76
2022/08/27 22:59:16;;;;;;;13.75;10.85;;;22.70;1.00;;;;;;10442991;28;20228;-76
2022/08/27 23:04:38;;;;;;;15.90;11.65;;;22.70;1.00;;;;;;10500215;28;20482;-76
2022/08/27 23:10:16;;;;;;;19.13;10.93;;;22.60;1.00;;;;;;10510107;28;20383;-76
2022/08/27 23:15:37;;;;;;;14.25;11.73;;;22.60;99.90;;;;;;10443338;28;20220;-76
2022/08/27 23:21:00;;;;;;;15.77;10.90;;;22.50;1.00;;;;;;10443049;28;20543;-76
2022/08/27 23:32:02;;;;;;;13.82;10.82;;;22.40;1.00;;;;;;10442948;28;20197;-76
2022/08/27 23:37:24;;;;;;;13.02;10.27;;;22.40;99.90;;;;;;10442657;28;20295;-76
2022/08/27 23:42:46;;;;;;;11.18;9.70;;;22.40;8.60;;;;;;10442309;28;20202;-76
2022/08/27 23:48:09;;;;;;;15.35;9.55;;;22.30;1.00;;;;;;10441046;28;20243;-76
2022/08/27 23:53:31;;;;;;;11.32;9.90;;;22.20;79.60;;;;;;10441952;28;20483;-76
2022/08/27 23:58:54;;;;;;;13.05;10.73;;;;;;;;;;10440643;28;20303;-76
